createdAt,value
2019-05-29T00:00:02.444Z,92.224121
2019-05-29T00:01:02.596Z,92.327881
2019-05-29T00:02:03.723Z,92.327881
2019-05-29T00:03:02.760Z,92.425537
2019-05-29T00:04:03.779Z,92.425537
2019-05-29T00:05:02.904Z,92.529297
2019-05-29T00:06:03.995Z,92.633057
2019-05-29T00:07:03.231Z,92.736816
2019-05-29T00:08:03.248Z,92.736816
2019-05-29T00:09:03.316Z,92.736816
2019-05-29T00:10:03.321Z,92.883301
2019-05-29T00:11:03.428Z,92.883301
2019-05-29T00:12:03.585Z,92.987061
2019-05-29T00:13:04.704Z,92.987061
2019-05-29T00:14:17.706Z,92.987061
2019-05-29T00:15:04.838Z,93.09082
2019-05-29T00:16:03.926Z,93.09082
2019-05-29T00:17:03.960Z,93.19458
2019-05-29T00:18:03.924Z,93.29834
2019-05-29T00:19:04.041Z,93.29834
2019-05-29T00:20:04.186Z,93.29834
2019-05-29T00:21:04.301Z,93.395996
2019-05-29T00:22:04.439Z,93.499756
2019-05-29T00:23:04.574Z,93.499756
2019-05-29T00:24:04.535Z,93.499756
2019-05-29T00:25:04.655Z,93.499756
2019-05-29T00:26:04.793Z,93.603516
2019-05-29T00:27:05.357Z,93.64624
2019-05-29T00:28:05.068Z,93.75
2019-05-29T00:29:05.633Z,93.75
2019-05-29T00:30:05.172Z,93.85376
2019-05-29T00:31:05.757Z,93.85376
2019-05-29T00:32:06.777Z,93.85376
2019-05-29T00:33:07.878Z,93.95752
2019-05-29T00:34:06.931Z,93.95752
2019-05-29T00:35:05.946Z,93.95752
2019-05-29T00:36:06.136Z,93.95752
2019-05-29T00:37:06.318Z,93.95752
2019-05-29T00:38:06.434Z,94.000244
2019-05-29T00:39:06.491Z,94.000244
2019-05-29T00:40:06.689Z,94.000244
2019-05-29T00:41:06.729Z,93.896484
2019-05-29T00:42:06.935Z,94.000244
2019-05-29T00:43:07.315Z,94.000244
2019-05-29T00:44:07.061Z,94.000244
2019-05-29T00:45:07.664Z,94.000244
2019-05-29T00:46:07.277Z,94.000244
2019-05-29T00:47:07.411Z,93.896484
2019-05-29T00:48:07.687Z,94.000244
2019-05-29T00:49:07.693Z,93.896484
2019-05-29T00:50:07.955Z,94.000244
2019-05-29T00:51:07.050Z,94.042969
2019-05-29T00:52:08.080Z,94.042969
2019-05-29T00:53:08.078Z,94.042969
2019-05-29T00:54:08.215Z,94.042969
2019-05-29T00:55:08.649Z,94.042969
2019-05-29T00:56:08.489Z,94.146729
2019-05-29T00:57:08.703Z,94.146729
2019-05-29T00:58:08.825Z,94.146729
2019-05-29T00:59:08.914Z,94.146729
2019-05-29T01:00:08.932Z,94.146729
2019-05-29T01:01:09.241Z,94.146729
2019-05-29T01:02:09.453Z,94.189453
2019-05-29T01:03:09.533Z,94.189453
2019-05-29T01:04:09.495Z,94.189453
2019-05-29T01:05:09.809Z,94.189453
2019-05-29T01:06:08.496Z,94.293213
2019-05-29T01:07:10.182Z,94.293213
2019-05-29T01:08:08.692Z,94.293213
2019-05-29T01:09:08.836Z,94.293213
2019-05-29T01:10:08.968Z,94.293213
2019-05-29T01:11:10.597Z,94.293213
2019-05-29T01:12:09.139Z,94.293213
2019-05-29T01:13:09.146Z,94.396973
2019-05-29T01:14:09.180Z,94.396973
2019-05-29T01:15:09.131Z,94.396973
2019-05-29T01:16:09.246Z,94.500732
2019-05-29T01:17:09.352Z,94.500732
2019-05-29T01:18:09.482Z,94.500732
2019-05-29T01:19:09.663Z,94.647217
2019-05-29T01:20:09.779Z,94.647217
2019-05-29T01:21:09.919Z,94.647217
2019-05-29T01:22:10.015Z,94.750977
2019-05-29T01:23:10.148Z,94.750977
2019-05-29T01:24:10.324Z,94.750977
2019-05-29T01:25:12.404Z,94.854736
2019-05-29T01:26:10.518Z,94.854736
2019-05-29T01:27:10.668Z,94.854736
2019-05-29T01:28:10.687Z,94.958496
2019-05-29T01:29:10.757Z,94.958496
2019-05-29T01:30:10.738Z,95.062256
2019-05-29T01:31:10.745Z,95.062256
2019-05-29T01:32:10.885Z,95.062256
2019-05-29T01:33:11.033Z,95.166016
2019-05-29T01:34:12.176Z,95.166016
2019-05-29T01:35:12.285Z,95.166016
2019-05-29T01:36:12.371Z,95.166016
2019-05-29T01:37:11.519Z,95.166016
2019-05-29T01:38:11.513Z,95.166016
2019-05-29T01:39:11.527Z,95.269775
2019-05-29T01:40:19.773Z,95.269775
2019-05-29T01:41:11.726Z,95.269775
2019-05-29T01:42:12.844Z,95.269775
2019-05-29T01:43:11.965Z,95.166016
2019-05-29T01:44:13.070Z,95.166016
2019-05-29T01:45:12.221Z,95.166016
2019-05-29T01:46:12.314Z,95.166016
2019-05-29T01:47:13.307Z,95.20874
2019-05-29T01:48:12.345Z,95.10498
2019-05-29T01:49:12.461Z,95.10498
2019-05-29T01:50:12.622Z,95.10498
2019-05-29T01:51:12.732Z,95.001221
2019-05-29T01:52:12.847Z,95.001221
2019-05-29T01:53:12.854Z,95.001221
2019-05-29T01:54:12.965Z,95.001221
2019-05-29T01:55:13.117Z,95.001221
2019-05-29T01:56:13.235Z,95.001221
2019-05-29T01:57:13.409Z,95.001221
2019-05-29T01:58:13.383Z,95.001221
2019-05-29T01:59:13.388Z,95.001221
2019-05-29T02:00:13.540Z,95.001221
2019-05-29T02:01:13.508Z,95.001221
2019-05-29T02:02:13.631Z,95.001221
2019-05-29T02:03:13.749Z,94.940186
2019-05-29T02:04:13.872Z,94.940186
2019-05-29T02:05:14.025Z,95.043945
2019-05-29T02:06:14.015Z,94.940186
2019-05-29T02:07:14.001Z,95.043945
2019-05-29T02:08:14.125Z,94.940186
2019-05-29T02:09:14.244Z,94.940186
2019-05-29T02:10:14.386Z,94.940186
2019-05-29T02:11:14.984Z,94.940186
2019-05-29T02:12:14.518Z,94.940186
2019-05-29T02:13:15.160Z,94.940186
2019-05-29T02:14:14.743Z,94.940186
2019-05-29T02:15:23.581Z,94.98291
2019-05-29T02:16:16.441Z,94.98291
2019-05-29T02:17:15.556Z,94.98291
2019-05-29T02:18:15.184Z,94.98291
2019-05-29T02:19:15.702Z,94.98291
2019-05-29T02:20:15.404Z,94.98291
2019-05-29T02:21:15.899Z,94.885254
2019-05-29T02:22:16.881Z,94.885254
2019-05-29T02:23:15.833Z,94.885254
2019-05-29T02:24:16.930Z,94.885254
2019-05-29T02:25:17.972Z,94.885254
2019-05-29T02:26:16.147Z,94.885254
2019-05-29T02:27:17.235Z,94.885254
2019-05-29T02:28:18.323Z,94.98291
2019-05-29T02:29:16.439Z,94.98291
2019-05-29T02:30:18.590Z,94.98291
2019-05-29T02:31:18.122Z,94.98291
2019-05-29T02:32:17.659Z,94.98291
2019-05-29T02:33:17.677Z,94.98291
2019-05-29T02:34:17.489Z,95.031738
2019-05-29T02:35:18.043Z,95.031738
2019-05-29T02:36:18.008Z,95.031738
2019-05-29T02:37:18.238Z,95.135498
2019-05-29T02:38:18.464Z,95.135498
2019-05-29T02:39:18.668Z,95.135498
2019-05-29T02:40:18.886Z,95.135498
2019-05-29T02:41:19.088Z,95.135498
2019-05-29T02:42:18.751Z,95.135498
2019-05-29T02:43:19.201Z,95.135498
2019-05-29T02:44:19.135Z,95.239258
2019-05-29T02:45:19.380Z,95.239258
2019-05-29T02:46:19.405Z,95.135498
2019-05-29T02:47:19.271Z,95.135498
2019-05-29T02:48:20.760Z,95.135498
2019-05-29T02:49:19.890Z,95.135498
2019-05-29T02:50:19.628Z,95.135498
2019-05-29T02:51:19.718Z,95.178223
2019-05-29T02:52:19.974Z,95.178223
2019-05-29T02:53:20.019Z,95.178223
2019-05-29T02:54:20.155Z,95.178223
2019-05-29T02:55:20.609Z,95.178223
2019-05-29T02:56:20.371Z,95.178223
2019-05-29T02:57:20.701Z,95.178223
2019-05-29T02:58:21.361Z,95.178223
2019-05-29T02:59:20.994Z,95.178223
2019-05-29T03:00:19.136Z,95.281982
2019-05-29T03:01:19.178Z,95.281982
2019-05-29T03:02:19.271Z,95.281982
2019-05-29T03:03:21.546Z,95.281982
2019-05-29T03:04:21.673Z,95.281982
2019-05-29T03:05:21.757Z,95.281982
2019-05-29T03:06:22.128Z,95.385742
2019-05-29T03:07:22.138Z,95.385742
2019-05-29T03:08:22.107Z,95.385742
2019-05-29T03:09:22.551Z,95.428467
2019-05-29T03:10:19.899Z,95.428467
2019-05-29T03:11:19.943Z,95.428467
2019-05-29T03:12:19.999Z,95.532227
2019-05-29T03:13:21.048Z,95.532227
2019-05-29T03:14:20.126Z,95.635986
2019-05-29T03:15:20.168Z,95.635986
2019-05-29T03:16:20.215Z,95.739746
2019-05-29T03:17:21.271Z,95.739746
2019-05-29T03:18:20.264Z,95.739746
2019-05-29T03:19:20.283Z,95.843506
2019-05-29T03:20:20.305Z,95.843506
2019-05-29T03:21:20.357Z,95.843506
2019-05-29T03:22:20.362Z,95.947266
2019-05-29T03:23:21.437Z,95.947266
2019-05-29T03:24:21.486Z,95.947266
2019-05-29T03:25:21.495Z,95.947266
2019-05-29T03:26:24.345Z,95.947266
2019-05-29T03:27:21.584Z,95.947266
2019-05-29T03:28:20.673Z,96.051025
2019-05-29T03:29:21.749Z,96.051025
2019-05-29T03:30:20.790Z,96.051025
2019-05-29T03:31:20.823Z,96.051025
2019-05-29T03:32:20.847Z,95.947266
2019-05-29T03:33:21.955Z,95.947266
2019-05-29T03:34:21.965Z,95.947266
2019-05-29T03:35:21.978Z,95.947266
2019-05-29T03:36:21.994Z,95.947266
2019-05-29T03:37:22.015Z,95.843506
2019-05-29T03:38:22.080Z,95.947266
2019-05-29T03:39:22.124Z,95.947266
2019-05-29T03:40:21.162Z,95.947266
2019-05-29T03:41:22.202Z,95.947266
2019-05-29T03:42:21.270Z,95.947266
2019-05-29T03:43:22.352Z,95.947266
2019-05-29T03:44:22.399Z,95.947266
2019-05-29T03:45:22.449Z,95.947266
2019-05-29T03:46:30.990Z,95.947266
2019-05-29T03:47:22.527Z,95.947266
2019-05-29T03:48:21.628Z,95.947266
2019-05-29T03:49:22.691Z,95.947266
2019-05-29T03:50:21.762Z,95.947266
2019-05-29T03:51:22.787Z,95.947266
2019-05-29T03:52:21.849Z,95.947266
2019-05-29T03:53:22.906Z,95.947266
2019-05-29T03:54:22.942Z,95.947266
2019-05-29T03:55:22.974Z,95.947266
2019-05-29T03:56:22.033Z,95.947266
2019-05-29T03:57:22.077Z,95.947266
2019-05-29T03:58:23.171Z,96.051025
2019-05-29T03:59:23.199Z,96.051025
2019-05-29T04:00:23.214Z,96.051025
2019-05-29T04:01:23.300Z,96.051025
2019-05-29T04:02:23.333Z,96.051025
2019-05-29T04:03:23.388Z,96.051025
2019-05-29T04:04:23.432Z,96.154785
2019-05-29T04:05:23.461Z,96.154785
2019-05-29T04:06:23.593Z,96.154785
2019-05-29T04:07:23.621Z,96.154785
2019-05-29T04:08:23.622Z,96.258545
2019-05-29T04:09:22.728Z,96.258545
2019-05-29T04:10:22.807Z,96.258545
2019-05-29T04:11:23.912Z,96.258545
2019-05-29T04:12:23.970Z,96.258545
2019-05-29T04:13:23.989Z,96.362305
2019-05-29T04:14:24.041Z,96.362305
2019-05-29T04:15:24.064Z,96.362305
2019-05-29T04:16:24.084Z,96.362305
2019-05-29T04:17:24.105Z,96.313477
2019-05-29T04:18:24.126Z,96.417236
2019-05-29T04:19:24.193Z,96.417236
2019-05-29T04:20:24.243Z,96.417236
2019-05-29T04:21:24.260Z,96.417236
2019-05-29T04:22:24.308Z,96.417236
2019-05-29T04:23:24.334Z,96.520996
2019-05-29T04:24:24.429Z,96.520996
2019-05-29T04:25:24.470Z,96.520996
2019-05-29T04:26:24.505Z,96.624756
2019-05-29T04:27:24.540Z,96.624756
2019-05-29T04:28:24.562Z,96.685791
2019-05-29T04:29:24.624Z,96.685791
2019-05-29T04:30:24.652Z,96.789551
2019-05-29T04:31:23.678Z,96.893311
2019-05-29T04:32:23.745Z,96.893311
2019-05-29T04:33:23.836Z,96.99707
2019-05-29T04:34:24.924Z,96.99707
2019-05-29T04:35:24.926Z,97.058105
2019-05-29T04:36:24.945Z,97.058105
2019-05-29T04:37:25.089Z,97.155762
2019-05-29T04:38:25.220Z,97.259521
2019-05-29T04:39:25.279Z,97.259521
2019-05-29T04:40:25.253Z,97.363281
2019-05-29T04:41:25.345Z,97.320557
2019-05-29T04:42:25.481Z,97.424316
2019-05-29T04:43:25.545Z,97.424316
2019-05-29T04:44:25.703Z,97.424316
2019-05-29T04:45:25.710Z,97.424316
2019-05-29T04:46:25.839Z,97.424316
2019-05-29T04:47:25.840Z,97.528076
2019-05-29T04:48:25.925Z,97.528076
2019-05-29T04:49:26.037Z,97.528076
2019-05-29T04:50:26.144Z,97.485352
2019-05-29T04:51:26.275Z,97.589111
2019-05-29T04:52:25.406Z,97.589111
2019-05-29T04:53:26.485Z,97.589111
2019-05-29T04:54:26.560Z,97.589111
2019-05-29T04:55:25.606Z,97.589111
2019-05-29T04:56:26.692Z,97.589111
2019-05-29T04:57:25.740Z,97.589111
2019-05-29T04:58:26.883Z,97.540283
2019-05-29T04:59:25.940Z,97.540283
2019-05-29T05:00:25.968Z,97.540283
2019-05-29T05:01:26.020Z,97.540283
2019-05-29T05:02:26.132Z,97.644043
2019-05-29T05:03:26.196Z,97.644043
2019-05-29T05:04:26.324Z,97.644043
2019-05-29T05:05:26.486Z,97.705078
2019-05-29T05:06:26.475Z,97.705078
2019-05-29T05:07:26.544Z,97.808838
2019-05-29T05:08:26.546Z,97.808838
2019-05-29T05:09:26.665Z,97.808838
2019-05-29T05:10:26.672Z,97.808838
2019-05-29T05:11:26.770Z,97.76001
2019-05-29T05:12:26.747Z,97.76001
2019-05-29T05:13:26.817Z,97.65625
2019-05-29T05:14:26.925Z,97.65625
2019-05-29T05:15:27.055Z,97.65625
2019-05-29T05:16:27.310Z,97.65625
2019-05-29T05:17:27.212Z,97.65625
2019-05-29T05:18:27.365Z,97.613525
2019-05-29T05:19:27.363Z,97.613525
2019-05-29T05:20:27.463Z,97.613525
2019-05-29T05:21:27.591Z,97.613525
2019-05-29T05:22:27.673Z,97.509766
2019-05-29T05:23:27.741Z,97.509766
2019-05-29T05:24:27.805Z,97.467041
2019-05-29T05:25:27.815Z,97.467041
2019-05-29T05:26:27.844Z,97.467041
2019-05-29T05:27:27.873Z,97.467041
2019-05-29T05:28:28.018Z,97.467041
2019-05-29T05:29:28.134Z,97.467041
2019-05-29T05:30:28.285Z,97.418213
2019-05-29T05:31:28.450Z,97.210693
2019-05-29T05:32:28.545Z,97.210693
2019-05-29T05:33:28.672Z,97.106934
2019-05-29T05:34:28.754Z,97.009277
2019-05-29T05:35:28.860Z,96.856689
2019-05-29T05:36:28.986Z,96.856689
2019-05-29T05:37:29.091Z,96.75293
2019-05-29T05:38:29.185Z,96.655273
2019-05-29T05:39:30.770Z,96.551514
2019-05-29T05:40:30.646Z,96.551514
2019-05-29T05:41:30.743Z,96.343994
2019-05-29T05:42:30.990Z,96.30127
2019-05-29T05:43:30.715Z,96.30127
2019-05-29T05:44:30.688Z,96.19751
2019-05-29T05:45:30.919Z,96.19751
2019-05-29T05:46:30.900Z,96.09375
2019-05-29T05:47:44.692Z,95.88623
2019-05-29T05:48:30.878Z,95.532227
2019-05-29T05:49:31.275Z,95.428467
2019-05-29T05:50:31.058Z,95.428467
2019-05-29T05:51:31.273Z,95.330811
2019-05-29T05:52:31.171Z,95.428467
2019-05-29T05:53:31.293Z,95.428467
2019-05-29T05:54:31.326Z,95.428467
2019-05-29T05:55:31.455Z,95.178223
2019-05-29T05:56:31.388Z,95.080566
2019-05-29T05:57:31.462Z,94.976807
2019-05-29T05:58:31.629Z,94.873047
2019-05-29T05:59:31.529Z,94.769287
2019-05-29T06:00:31.847Z,94.665527
2019-05-29T06:01:31.715Z,94.213867
2019-05-29T06:02:31.667Z,94.110107
2019-05-29T06:03:31.787Z,94.006348
2019-05-29T06:04:31.788Z,94.110107
2019-05-29T06:05:32.037Z,93.902588
2019-05-29T06:06:31.942Z,93.548584
2019-05-29T06:07:31.947Z,93.652344
2019-05-29T06:08:31.980Z,94.287109
2019-05-29T06:09:32.648Z,92.980957
2019-05-29T06:10:32.008Z,90.74707
2019-05-29T06:11:32.169Z,88.000488
2019-05-29T06:12:32.227Z,83.599854
2019-05-29T06:13:32.500Z,83.496094
2019-05-29T06:14:32.303Z,82.922363
2019-05-29T06:15:32.328Z,84.088135
2019-05-29T06:16:32.978Z,84.741211
2019-05-29T06:17:32.328Z,85.253906
2019-05-29T06:18:32.817Z,85.906982
2019-05-29T06:19:32.729Z,86.730957
2019-05-29T06:20:32.626Z,86.767578
2019-05-29T06:21:32.536Z,87.078857
2019-05-29T06:22:32.862Z,87.280273
2019-05-29T06:23:33.311Z,86.053467
2019-05-29T06:24:33.396Z,86.871338
2019-05-29T06:25:33.780Z,86.871338
2019-05-29T06:26:33.468Z,87.176514
2019-05-29T06:27:33.316Z,87.591553
2019-05-29T06:28:32.972Z,86.462402
2019-05-29T06:29:33.474Z,86.663818
2019-05-29T06:30:33.994Z,84.924316
2019-05-29T06:31:33.752Z,85.437012
2019-05-29T06:32:33.425Z,85.845947
2019-05-29T06:33:33.404Z,85.949707
2019-05-29T06:34:33.489Z,85.296631
2019-05-29T06:35:34.117Z,85.601807
2019-05-29T06:36:33.471Z,85.296631
2019-05-29T06:37:33.647Z,86.315918
2019-05-29T06:38:33.568Z,84.783936
2019-05-29T06:39:33.454Z,85.296631
2019-05-29T06:40:33.885Z,86.419678
2019-05-29T06:41:33.595Z,85.601807
2019-05-29T06:42:33.553Z,84.783936
2019-05-29T06:43:33.769Z,83.343506
2019-05-29T06:44:34.245Z,82.69043
2019-05-29T06:45:34.384Z,81.359863
2019-05-29T06:46:34.317Z,80.950928
2019-05-29T06:47:36.242Z,80.133057
2019-05-29T06:48:49.984Z,79.925537
2019-05-29T06:49:35.874Z,81.567383
2019-05-29T06:50:35.275Z,81.768799
2019-05-29T06:51:35.100Z,80.603027
2019-05-29T06:52:35.241Z,80.914307
2019-05-29T06:53:35.488Z,81.732178
2019-05-29T06:54:34.075Z,80.297852
2019-05-29T06:55:34.074Z,78.35083
2019-05-29T06:56:35.453Z,79.681396
2019-05-29T06:57:35.866Z,80.706787
2019-05-29T06:58:35.783Z,79.58374
2019-05-29T06:59:36.046Z,79.748535
2019-05-29T07:00:35.729Z,80.26123
2019-05-29T07:01:35.184Z,79.3396
2019-05-29T07:02:34.782Z,80.462646
2019-05-29T07:03:35.574Z,80.053711
2019-05-29T07:04:34.813Z,79.956055
2019-05-29T07:05:35.869Z,81.182861
2019-05-29T07:06:36.500Z,80.462646
2019-05-29T07:07:35.991Z,79.852295
2019-05-29T07:08:39.682Z,80.01709
2019-05-29T07:09:36.851Z,78.277588
2019-05-29T07:10:36.339Z,76.843262
2019-05-29T07:11:35.186Z,77.868652
2019-05-29T07:12:36.255Z,76.843262
2019-05-29T07:13:37.700Z,78.173828
2019-05-29T07:14:36.487Z,79.199219
2019-05-29T07:15:36.443Z,78.137207
2019-05-29T07:16:45.040Z,78.344727
2019-05-29T07:17:36.741Z,77.423096
2019-05-29T07:18:36.522Z,78.240967
2019-05-29T07:19:48.691Z,78.753662
2019-05-29T07:20:37.038Z,78.240967
2019-05-29T07:21:36.694Z,78.649902
2019-05-29T07:22:36.941Z,78.552246
2019-05-29T07:23:36.624Z,79.534912
2019-05-29T07:24:37.297Z,78.820801
2019-05-29T07:25:36.780Z,79.125977
2019-05-29T07:26:36.858Z,76.776123
2019-05-29T07:27:36.822Z,79.663086
2019-05-29T07:28:37.167Z,77.545166
2019-05-29T07:29:38.909Z,74.481201
2019-05-29T07:30:37.315Z,65.087891
2019-05-29T07:31:38.788Z,58.648682
2019-05-29T07:32:38.646Z,56.195068
2019-05-29T07:33:38.926Z,52.868652
2019-05-29T07:34:50.971Z,52.996826
2019-05-29T07:35:39.080Z,49.688721
2019-05-29T07:36:37.903Z,46.337891
2019-05-29T07:37:39.534Z,44.335938
2019-05-29T07:38:37.683Z,46.990967
2019-05-29T07:39:39.429Z,46.5271
2019-05-29T07:40:38.375Z,42.572021
2019-05-29T07:41:39.551Z,41.656494
2019-05-29T07:42:39.891Z,44.226074
2019-05-29T07:43:39.656Z,42.791748
2019-05-29T07:44:38.071Z,42.248535
2019-05-29T07:45:38.078Z,39.727783
2019-05-29T07:46:38.088Z,37.524414
2019-05-29T07:47:38.424Z,39.508057
2019-05-29T07:48:38.467Z,38.519287
2019-05-29T07:49:42.689Z,37.902832
2019-05-29T07:50:38.447Z,37.963867
2019-05-29T07:51:38.454Z,37.567139
2019-05-29T07:52:38.668Z,37.963867
2019-05-29T07:53:38.468Z,35.803223
2019-05-29T07:54:39.818Z,38.085938
2019-05-29T07:55:40.409Z,36.59668
2019-05-29T07:56:38.622Z,36.663818
2019-05-29T07:57:38.810Z,37.811279
2019-05-29T07:58:38.764Z,40.478516
2019-05-29T07:59:40.462Z,40.045166
2019-05-29T08:01:00.762Z,38.238525
2019-05-29T08:01:40.711Z,39.050293
2019-05-29T08:02:39.380Z,39.727783
2019-05-29T08:03:39.291Z,37.524414
2019-05-29T08:04:38.986Z,38.635254
2019-05-29T08:05:39.215Z,37.62207
2019-05-29T08:06:45.738Z,37.701416
2019-05-29T08:07:41.370Z,37.091064
2019-05-29T08:08:39.284Z,36.975098
2019-05-29T08:09:39.354Z,36.199951
2019-05-29T08:10:39.940Z,35.424805
2019-05-29T08:11:39.520Z,37.689209
2019-05-29T08:12:44.240Z,35.601807
2019-05-29T08:13:41.472Z,37.200928
2019-05-29T08:14:39.752Z,38.128662
2019-05-29T08:15:53.825Z,37.750244
2019-05-29T08:16:41.831Z,37.8479
2019-05-29T08:17:39.994Z,38.110352
2019-05-29T08:18:41.218Z,38.05542
2019-05-29T08:19:56.883Z,37.207031
2019-05-29T08:20:41.853Z,36.791992
2019-05-29T08:21:40.946Z,35.864258
2019-05-29T08:22:40.246Z,35.552979
2019-05-29T08:23:40.299Z,35.83374
2019-05-29T08:24:40.611Z,33.14209
2019-05-29T08:25:41.292Z,35.418701
2019-05-29T08:26:42.737Z,34.82666
2019-05-29T08:27:40.590Z,35.687256
2019-05-29T08:28:40.494Z,36.547852
2019-05-29T08:29:40.612Z,39.208984
2019-05-29T08:30:41.143Z,39.459229
2019-05-29T08:31:42.725Z,40.936279
2019-05-29T08:32:40.886Z,42.572021
2019-05-29T08:33:40.850Z,43.579102
2019-05-29T08:34:40.917Z,44.842529
2019-05-29T08:35:41.496Z,46.368408
2019-05-29T08:36:55.666Z,46.490479
2019-05-29T08:37:42.835Z,46.392822
2019-05-29T08:38:42.880Z,44.0979
2019-05-29T08:39:41.202Z,43.511963
2019-05-29T08:40:41.116Z,41.656494
2019-05-29T08:41:47.463Z,41.375732
2019-05-29T08:42:43.164Z,41.174316
2019-05-29T08:43:42.476Z,41.131592
2019-05-29T08:44:43.383Z,43.078613
2019-05-29T08:45:41.622Z,44.763184
2019-05-29T08:46:41.741Z,47.119141
2019-05-29T08:47:43.458Z,46.636963
2019-05-29T08:48:41.808Z,46.801758
2019-05-29T08:49:41.783Z,47.65625
2019-05-29T08:50:43.652Z,48.278809
2019-05-29T08:51:41.924Z,50.750732
2019-05-29T08:52:41.983Z,50.872803
2019-05-29T08:53:42.503Z,51.708984
2019-05-29T08:54:43.941Z,52.435303
2019-05-29T08:55:42.132Z,53.4729
2019-05-29T08:56:42.309Z,54.003906
2019-05-29T08:57:42.518Z,55.041504
2019-05-29T08:58:42.877Z,54.229736
2019-05-29T08:59:42.397Z,54.437256
2019-05-29T09:00:46.527Z,52.941895
2019-05-29T09:01:44.983Z,53.271484
2019-05-29T09:02:44.607Z,52.459717
2019-05-29T09:03:42.851Z,54.003906
2019-05-29T09:04:43.059Z,55.725098
2019-05-29T09:05:44.519Z,56.866455
2019-05-29T09:06:44.675Z,52.105713
2019-05-29T09:07:43.589Z,54.13208
2019-05-29T09:08:46.180Z,56.390381
2019-05-29T09:09:43.107Z,54.766846
2019-05-29T09:10:43.314Z,54.943848
2019-05-29T09:11:45.204Z,51.977539
2019-05-29T09:12:46.808Z,51.165771
2019-05-29T09:13:44.273Z,55.218506
2019-05-29T09:14:43.271Z,53.875732
2019-05-29T09:15:43.275Z,53.778076
2019-05-29T09:16:43.289Z,53.979492
2019-05-29T09:17:43.350Z,53.875732
2019-05-29T09:18:43.363Z,53.369141
2019-05-29T09:19:43.374Z,53.167725
2019-05-29T09:21:01.499Z,52.862549
2019-05-29T09:21:44.539Z,52.661133
2019-05-29T09:22:43.615Z,52.435303
2019-05-29T09:23:43.645Z,53.625488
2019-05-29T09:24:43.655Z,55.041504
2019-05-29T09:25:43.837Z,53.851318
2019-05-29T09:26:46.397Z,53.753662
2019-05-29T09:27:43.841Z,54.260254
2019-05-29T09:28:43.878Z,53.753662
2019-05-29T09:29:43.879Z,52.966309
2019-05-29T09:30:43.899Z,54.180908
2019-05-29T09:31:43.878Z,52.862549
2019-05-29T09:32:49.938Z,48.205566
2019-05-29T09:33:43.882Z,50.152588
2019-05-29T09:34:47.410Z,50.256348
2019-05-29T09:35:44.044Z,51.165771
2019-05-29T09:36:44.068Z,50.585938
2019-05-29T09:37:45.135Z,51.391602
2019-05-29T09:38:44.191Z,50.482178
2019-05-29T09:39:44.227Z,50.683594
2019-05-29T09:40:44.244Z,52.001953
2019-05-29T09:41:44.238Z,54.437256
2019-05-29T09:42:44.232Z,54.742432
2019-05-29T09:43:57.991Z,54.943848
2019-05-29T09:44:45.436Z,54.638672
2019-05-29T09:45:44.448Z,56.665039
2019-05-29T09:46:44.448Z,55.651855
2019-05-29T09:47:44.447Z,58.392334
2019-05-29T09:48:49.443Z,58.288574
2019-05-29T09:49:44.600Z,55.651855
2019-05-29T09:50:49.865Z,54.23584
2019-05-29T09:51:44.744Z,54.437256
2019-05-29T09:52:45.906Z,54.510498
2019-05-29T09:53:46.200Z,57.220459
2019-05-29T09:54:46.098Z,54.888916
2019-05-29T09:55:45.107Z,54.888916
2019-05-29T09:56:46.286Z,53.649902
2019-05-29T09:57:46.272Z,53.24707
2019-05-29T09:58:45.273Z,54.46167
2019-05-29T09:59:46.250Z,56.384277
2019-05-29T10:00:46.372Z,56.384277
2019-05-29T10:01:46.506Z,56.915283
2019-05-29T10:02:46.657Z,54.992676
2019-05-29T10:03:45.798Z,53.979492
2019-05-29T10:04:46.675Z,55.01709
2019-05-29T10:05:46.826Z,54.510498
2019-05-29T10:06:45.861Z,57.244873
2019-05-29T10:07:46.859Z,58.361816
2019-05-29T10:08:45.892Z,59.576416
2019-05-29T10:09:46.864Z,56.640625
2019-05-29T10:10:47.030Z,56.536865
2019-05-29T10:11:47.046Z,56.842041
2019-05-29T10:12:47.178Z,56.335449
2019-05-29T10:13:46.345Z,55.932617
2019-05-29T10:14:49.183Z,58.056641
2019-05-29T10:15:47.494Z,58.337402
2019-05-29T10:16:47.639Z,58.636475
2019-05-29T10:17:47.794Z,54.589844
2019-05-29T10:18:46.930Z,54.992676
2019-05-29T10:19:47.962Z,56.311035
2019-05-29T10:20:47.122Z,54.79126
2019-05-29T10:21:48.126Z,54.888916
2019-05-29T10:22:48.144Z,56.079102
2019-05-29T10:23:47.162Z,53.851318
2019-05-29T10:24:48.178Z,56.384277
2019-05-29T10:25:48.318Z,55.316162
2019-05-29T10:26:48.374Z,52.941895
2019-05-29T10:27:48.532Z,52.062988
2019-05-29T10:28:58.723Z,49.145508
2019-05-29T10:29:51.094Z,49.273682
2019-05-29T10:30:48.246Z,44.989014
2019-05-29T10:31:49.133Z,43.981934
2019-05-29T10:32:48.221Z,49.182129
2019-05-29T10:33:48.212Z,46.044922
2019-05-29T10:34:48.454Z,44.281006
2019-05-29T10:35:49.539Z,41.851807
2019-05-29T10:36:50.332Z,44.73877
2019-05-29T10:37:48.632Z,44.750977
2019-05-29T10:38:48.634Z,44.586182
2019-05-29T10:39:48.875Z,44.421387
2019-05-29T10:41:00.003Z,41.497803
2019-05-29T10:41:49.347Z,41.07666
2019-05-29T10:42:49.069Z,39.782715
2019-05-29T10:43:49.136Z,41.07666
2019-05-29T10:44:49.077Z,40.344238
2019-05-29T10:45:49.856Z,41.815186
2019-05-29T10:46:51.584Z,38.122559
2019-05-29T10:47:49.752Z,37.805176
2019-05-29T10:48:51.976Z,38.085938
2019-05-29T10:49:49.735Z,34.692383
2019-05-29T10:50:50.901Z,37.17041
2019-05-29T10:52:05.310Z,33.288574
2019-05-29T10:52:49.927Z,33.38623
2019-05-29T10:53:51.887Z,33.105469
2019-05-29T10:54:50.211Z,35.205078
2019-05-29T10:55:50.511Z,37.585449
2019-05-29T10:56:50.809Z,37.054443
2019-05-29T10:57:50.747Z,35.650635
2019-05-29T10:58:56.036Z,34.759521
2019-05-29T10:59:50.823Z,34.741211
2019-05-29T11:00:51.169Z,34.14917
2019-05-29T11:01:51.117Z,34.411621
2019-05-29T11:02:52.416Z,36.572266
2019-05-29T11:03:52.146Z,33.325195
2019-05-29T11:04:53.592Z,32.318115
2019-05-29T11:05:50.089Z,33.508301
2019-05-29T11:06:52.417Z,31.329346
2019-05-29T11:07:50.242Z,33.111572
2019-05-29T11:08:50.309Z,32.220459
2019-05-29T11:09:50.464Z,32.006836
2019-05-29T11:10:50.461Z,31.231689
2019-05-29T11:11:50.713Z,33.520508
2019-05-29T11:12:50.753Z,31.542969
2019-05-29T11:13:50.563Z,33.325195
2019-05-29T11:14:50.763Z,32.421875
2019-05-29T11:15:50.840Z,33.636475
2019-05-29T11:16:50.874Z,34.429932
2019-05-29T11:17:51.356Z,31.048584
2019-05-29T11:18:51.202Z,30.456543
2019-05-29T11:19:51.172Z,32.055664
2019-05-29T11:20:51.338Z,34.313965
2019-05-29T11:21:51.691Z,32.23877
2019-05-29T11:22:51.618Z,32.122803
2019-05-29T11:23:51.809Z,33.917236
2019-05-29T11:24:52.311Z,32.635498
2019-05-29T11:25:52.051Z,32.025146
2019-05-29T11:26:52.154Z,32.531738